createdAt,value
2023-04-03T00:00:10.984Z,97.4715
2023-04-03T00:01:12.689Z,97.4855
2023-04-03T00:02:14.538Z,97.3704
2023-04-03T00:03:16.354Z,97.2039
2023-04-03T00:04:18.089Z,97.0423
2023-04-03T00:05:19.955Z,96.8041
2023-04-03T00:06:21.620Z,96.6933
2023-04-03T00:07:23.313Z,96.7157
2023-04-03T00:08:25.028Z,96.6007
2023-04-03T00:09:26.699Z,96.6355
2023-04-03T00:10:28.525Z,96.6221
2023-04-03T00:11:30.181Z,96.4995
2023-04-03T00:12:31.871Z,96.4104
2023-04-03T00:13:33.524Z,96.4620
2023-04-03T00:14:35.249Z,96.7198
2023-04-03T00:15:36.988Z,96.9346
2023-04-03T00:16:38.705Z,96.8209
2023-04-03T00:17:40.430Z,96.6309
2023-04-03T00:18:42.099Z,96.6135
2023-04-03T00:19:43.808Z,96.4118
2023-04-03T00:20:45.531Z,96.4691
2023-04-03T00:21:47.256Z,96.6767
2023-04-03T00:22:49.150Z,96.7547
2023-04-03T00:23:50.838Z,96.5137
2023-04-03T00:24:52.627Z,96.6893
2023-04-03T00:25:54.398Z,96.6348
2023-04-03T00:26:56.166Z,96.5819
2023-04-03T00:27:57.900Z,96.6359
2023-04-03T00:28:59.637Z,96.2556
2023-04-03T00:30:01.323Z,96.2662
2023-04-03T00:31:03.109Z,96.2614
2023-04-03T00:32:04.802Z,95.7646
2023-04-03T00:33:06.548Z,95.5516
2023-04-03T00:34:08.348Z,95.5727
2023-04-03T00:35:10.036Z,95.3646
2023-04-03T00:36:11.849Z,95.6768
2023-04-03T00:37:13.528Z,95.7179
2023-04-03T00:38:15.272Z,95.3617
2023-04-03T00:39:16.994Z,95.3967
2023-04-03T00:40:18.702Z,95.4058
2023-04-03T00:41:20.481Z,95.6647
2023-04-03T00:42:22.190Z,95.7619
2023-04-03T00:43:23.860Z,95.6721
2023-04-03T00:44:25.577Z,94.6728
2023-04-03T00:45:27.403Z,94.6207
2023-04-03T00:46:29.161Z,94.9491
2023-04-03T00:47:30.909Z,94.7167
2023-04-03T00:48:32.633Z,94.7895
2023-04-03T00:49:34.343Z,95.0898
2023-04-03T00:50:36.468Z,95.5122
2023-04-03T00:51:38.327Z,95.4231
2023-04-03T00:52:39.563Z,95.4529
2023-04-03T00:53:42.935Z,95.4074
2023-04-03T00:54:44.622Z,95.2758
2023-04-03T00:55:46.283Z,95.3426
2023-04-03T00:56:47.996Z,95.6467
2023-04-03T00:57:49.719Z,95.3930
2023-04-03T00:58:51.488Z,95.0611
2023-04-03T00:59:53.145Z,94.6126
2023-04-03T01:00:54.931Z,94.2613
2023-04-03T01:01:56.675Z,94.6490
2023-04-03T01:02:58.546Z,94.6862
2023-04-03T01:04:00.237Z,94.7547
2023-04-03T01:05:01.976Z,95.1585
2023-04-03T01:06:03.724Z,94.3024
2023-04-03T01:07:05.467Z,94.3498
2023-04-03T01:08:07.147Z,94.3771
2023-04-03T01:09:08.914Z,94.2497
2023-04-03T01:10:10.608Z,94.2765
2023-04-03T01:11:12.343Z,94.1327
2023-04-03T01:12:14.121Z,94.1076
2023-04-03T01:13:15.827Z,94.1167
2023-04-03T01:14:17.520Z,94.1346
2023-04-03T01:15:19.279Z,94.6817
2023-04-03T01:16:21.127Z,94.3861
2023-04-03T01:17:22.856Z,94.4682
2023-04-03T01:18:24.605Z,94.6512
2023-04-03T01:19:26.292Z,94.7930
2023-04-03T01:20:28.103Z,94.6948
2023-04-03T01:21:29.827Z,94.4805
2023-04-03T01:22:31.543Z,94.3964
2023-04-03T01:23:33.321Z,94.3652
2023-04-03T01:24:35.046Z,94.7728
2023-04-03T01:25:36.763Z,94.4752
2023-04-03T01:26:38.721Z,94.6212
2023-04-03T01:27:40.356Z,95.0007
2023-04-03T01:28:42.125Z,95.0025
2023-04-03T01:29:43.888Z,94.9577
2023-04-03T01:30:45.589Z,94.8210
2023-04-03T01:31:47.363Z,94.7461
2023-04-03T01:32:49.145Z,94.4411
2023-04-03T01:33:50.828Z,94.0792
2023-04-03T01:34:52.518Z,93.9577
2023-04-03T01:35:54.305Z,94.1150
2023-04-03T01:36:56.090Z,94.2772
2023-04-03T01:37:57.809Z,93.6935
2023-04-03T01:38:59.497Z,93.5601
2023-04-03T01:40:01.220Z,93.4582
2023-04-03T01:41:02.908Z,93.7475
2023-04-03T01:42:04.661Z,93.7959
2023-04-03T01:43:06.431Z,93.0913
2023-04-03T01:44:08.150Z,93.4619
2023-04-03T01:45:09.926Z,93.4537
2023-04-03T01:46:11.903Z,93.4015
2023-04-03T01:47:14.001Z,93.4822
2023-04-03T01:48:15.747Z,93.8360
2023-04-03T01:49:17.509Z,93.6372
2023-04-03T01:50:19.219Z,93.3818
2023-04-03T01:51:20.992Z,93.4803
2023-04-03T01:52:22.763Z,93.4345
2023-04-03T01:53:24.564Z,93.7215
2023-04-03T01:54:26.296Z,93.9001
2023-04-03T01:55:28.044Z,93.7324
2023-04-03T01:56:29.786Z,93.8728
2023-04-03T01:57:31.693Z,93.9156
2023-04-03T01:58:33.524Z,93.2743
2023-04-03T01:59:35.322Z,93.5699
2023-04-03T02:00:37.457Z,93.7038
2023-04-03T02:01:37.371Z,93.3967
2023-04-03T02:02:39.580Z,93.6990
2023-04-03T02:03:41.379Z,93.8053
2023-04-03T02:04:43.197Z,93.8393
2023-04-03T02:05:44.973Z,93.5022
2023-04-03T02:06:46.770Z,93.3650
2023-04-03T02:07:48.627Z,93.5143
2023-04-03T02:08:50.399Z,93.2268
2023-04-03T02:09:52.266Z,93.5011
2023-04-03T02:10:54.066Z,93.5470
2023-04-03T02:11:55.902Z,93.3017
2023-04-03T02:12:57.661Z,93.4159
2023-04-03T02:13:59.498Z,93.3054
2023-04-03T02:15:01.238Z,92.8010
2023-04-03T02:16:03.036Z,93.2131
2023-04-03T02:17:04.839Z,93.2652
2023-04-03T02:18:07.618Z,93.2374
2023-04-03T02:19:07.259Z,92.8353
2023-04-03T02:20:09.029Z,92.5564
2023-04-03T02:21:10.821Z,92.9884
2023-04-03T02:22:12.671Z,92.7938
2023-04-03T02:23:14.463Z,92.2466
2023-04-03T02:24:16.218Z,92.9151
2023-04-03T02:25:17.998Z,93.1716
2023-04-03T02:26:19.737Z,93.0327
2023-04-03T02:27:21.525Z,92.7916
2023-04-03T02:28:23.272Z,92.6824
2023-04-03T02:29:25.127Z,93.0781
2023-04-03T02:30:26.899Z,93.1483
2023-04-03T02:31:28.728Z,93.4737
2023-04-03T02:32:30.546Z,93.3101
2023-04-03T02:33:32.286Z,93.1763
2023-04-03T02:34:34.042Z,93.1627
2023-04-03T02:35:35.836Z,92.6599
2023-04-03T02:36:37.570Z,92.4365
2023-04-03T02:37:39.343Z,92.7012
2023-04-03T02:38:41.117Z,92.6158
2023-04-03T02:39:42.938Z,92.9049
2023-04-03T02:40:44.677Z,92.4900
2023-04-03T02:41:46.529Z,92.3201
2023-04-03T02:42:48.289Z,92.1041
2023-04-03T02:43:50.032Z,91.6052
2023-04-03T02:44:51.800Z,91.8578
2023-04-03T02:45:53.235Z,92.1972
2023-04-03T02:46:53.587Z,92.1373
2023-04-03T02:47:55.442Z,92.0398
2023-04-03T02:48:57.270Z,91.9932
2023-04-03T02:49:59.132Z,91.9218
2023-04-03T02:51:00.905Z,91.7880
2023-04-03T02:52:02.768Z,92.0309
2023-04-03T02:53:04.597Z,92.2228
2023-04-03T02:54:06.290Z,91.9434
2023-04-03T02:55:08.053Z,92.2026
2023-04-03T02:56:09.801Z,92.1078
2023-04-03T02:57:11.658Z,91.8362
2023-04-03T02:58:13.721Z,92.1345
2023-04-03T02:59:15.514Z,92.3513
2023-04-03T03:00:17.283Z,92.6531
2023-04-03T03:01:19.026Z,92.7025
2023-04-03T03:02:20.834Z,92.4628
2023-04-03T03:03:22.617Z,92.4717
2023-04-03T03:04:24.420Z,92.3759
2023-04-03T03:05:26.161Z,92.3477
2023-04-03T03:06:28.026Z,92.4340
2023-04-03T03:07:29.841Z,92.3319
2023-04-03T03:08:31.670Z,92.2585
2023-04-03T03:09:33.429Z,92.1424
2023-04-03T03:10:35.399Z,92.0972
2023-04-03T03:11:37.578Z,92.2031
2023-04-03T03:12:39.320Z,92.2175
2023-04-03T03:13:41.094Z,92.0435
2023-04-03T03:14:42.849Z,92.1244
2023-04-03T03:15:44.641Z,92.2527
2023-04-03T03:16:46.362Z,92.2518
2023-04-03T03:17:48.168Z,92.2673
2023-04-03T03:18:49.965Z,92.2247
2023-04-03T03:19:51.724Z,92.1992
2023-04-03T03:20:53.461Z,92.3193
2023-04-03T03:21:55.238Z,91.9748
2023-04-03T03:22:56.999Z,91.8456
2023-04-03T03:23:58.796Z,91.5695
2023-04-03T03:25:00.540Z,91.3749
2023-04-03T03:26:02.349Z,91.1995
2023-04-03T03:27:04.163Z,90.7782
2023-04-03T03:28:05.890Z,90.6307
2023-04-03T03:29:07.725Z,90.7159
2023-04-03T03:30:09.466Z,90.7245
2023-04-03T03:31:11.381Z,91.1934
2023-04-03T03:32:13.152Z,91.0293
2023-04-03T03:33:14.926Z,90.6841
2023-04-03T03:34:16.658Z,90.4574
2023-04-03T03:35:18.416Z,90.6452
2023-04-03T03:36:20.224Z,90.4197
2023-04-03T03:37:22.005Z,90.1534
2023-04-03T03:38:23.865Z,90.1269
2023-04-03T03:39:25.653Z,90.1172
2023-04-03T03:40:27.478Z,89.7165
2023-04-03T03:41:29.249Z,89.4459
2023-04-03T03:42:31.000Z,89.3513
2023-04-03T03:43:32.844Z,88.8912
2023-04-03T03:44:34.546Z,89.0971
2023-04-03T03:45:36.575Z,89.2611
2023-04-03T03:46:38.648Z,89.2174
2023-04-03T03:47:40.440Z,89.1840
2023-04-03T03:48:42.329Z,89.5387
2023-04-03T03:49:44.147Z,88.9299
2023-04-03T03:50:45.866Z,88.5489
2023-04-03T03:51:47.651Z,88.9631
2023-04-03T03:52:49.429Z,88.6521
2023-04-03T03:53:51.273Z,88.6520
2023-04-03T03:54:53.101Z,88.8612
2023-04-03T03:55:54.847Z,88.7750
2023-04-03T03:56:56.627Z,88.9492
2023-04-03T03:57:58.429Z,88.5173
2023-04-03T03:59:00.241Z,88.0305
2023-04-03T04:00:02.035Z,88.0519
2023-04-03T04:01:03.850Z,87.9766
2023-04-03T04:02:05.755Z,87.7957
2023-04-03T04:03:07.720Z,87.7962
2023-04-03T04:04:09.615Z,87.5611
2023-04-03T04:05:11.316Z,87.4543
2023-04-03T04:06:13.170Z,87.5720
2023-04-03T04:07:14.942Z,87.5757
2023-04-03T04:08:16.695Z,87.4997
2023-04-03T04:09:18.479Z,87.6257
2023-04-03T04:10:20.250Z,87.2565
2023-04-03T04:11:22.008Z,86.9299
2023-04-03T04:12:23.893Z,87.1754
2023-04-03T04:13:25.645Z,86.5852
2023-04-03T04:14:27.491Z,86.4095
2023-04-03T04:15:29.294Z,86.1977
2023-04-03T04:16:31.136Z,86.1990
2023-04-03T04:17:33.087Z,85.6065
2023-04-03T04:18:34.880Z,85.7541
2023-04-03T04:19:36.716Z,85.6486
2023-04-03T04:20:38.517Z,86.1924
2023-04-03T04:21:40.435Z,85.5033
2023-04-03T04:22:42.213Z,85.6787
2023-04-03T04:23:44.094Z,85.2153
2023-04-03T04:24:45.877Z,85.3123
2023-04-03T04:25:47.658Z,85.3842
2023-04-03T04:26:49.506Z,85.0839
2023-04-03T04:27:51.272Z,84.9149
2023-04-03T04:28:53.054Z,85.2296
2023-04-03T04:29:54.901Z,85.2367
2023-04-03T04:30:56.738Z,85.2135
2023-04-03T04:31:58.473Z,84.9167
2023-04-03T04:33:00.316Z,84.9929
2023-04-03T04:34:02.124Z,85.3753
2023-04-03T04:35:03.943Z,85.2308
2023-04-03T04:36:05.783Z,85.2675
2023-04-03T04:37:07.630Z,85.3734
2023-04-03T04:38:09.664Z,84.8992
2023-04-03T04:39:11.444Z,85.3681
2023-04-03T04:40:13.313Z,85.3861
2023-04-03T04:41:15.194Z,85.1172
2023-04-03T04:42:17.939Z,85.4151
2023-04-03T04:43:17.587Z,84.9813
2023-04-03T04:44:19.391Z,84.8597
2023-04-03T04:45:21.223Z,84.8900
2023-04-03T04:46:23.099Z,84.1791
2023-04-03T04:47:24.955Z,84.0442
2023-04-03T04:48:26.712Z,84.3658
2023-04-03T04:49:28.549Z,84.3929
2023-04-03T04:50:30.414Z,83.5469
2023-04-03T04:51:40.996Z,83.7784
2023-04-03T04:52:32.581Z,83.2162
2023-04-03T04:53:34.655Z,82.9253
2023-04-03T04:54:36.473Z,82.9709
2023-04-03T04:55:38.596Z,82.9446
2023-04-03T04:56:38.292Z,83.1311
2023-04-03T04:57:40.168Z,83.2623
2023-04-03T04:58:42.307Z,82.9585
2023-04-03T04:59:44.106Z,81.8187
2023-04-03T05:00:46.038Z,82.2003
2023-04-03T05:01:47.826Z,82.5812
2023-04-03T05:02:49.737Z,82.8481
2023-04-03T05:03:51.610Z,81.8183
2023-04-03T05:04:53.442Z,82.3429
2023-04-03T05:05:55.298Z,82.1147
2023-04-03T05:06:57.002Z,81.9223
2023-04-03T05:07:58.812Z,81.4934
2023-04-03T05:09:00.581Z,81.2128
2023-04-03T05:10:02.395Z,80.2000
2023-04-03T05:11:04.149Z,80.5988
2023-04-03T05:12:05.939Z,81.0925
2023-04-03T05:13:07.756Z,80.4947
2023-04-03T05:14:09.552Z,79.6360
2023-04-03T05:15:11.366Z,79.9430
2023-04-03T05:16:13.136Z,79.9593
2023-04-03T05:17:14.930Z,80.3250
2023-04-03T05:18:16.779Z,80.1555
2023-04-03T05:19:18.562Z,79.7247
2023-04-03T05:20:20.389Z,79.8788
2023-04-03T05:21:22.200Z,80.4608
2023-04-03T05:22:23.987Z,79.7866
2023-04-03T05:23:25.752Z,79.4688
2023-04-03T05:24:27.551Z,79.2382
2023-04-03T05:25:29.323Z,78.9363
2023-04-03T05:26:31.122Z,78.4923
2023-04-03T05:27:32.930Z,78.3960
2023-04-03T05:28:34.691Z,78.2820
2023-04-03T05:29:36.437Z,78.1630
2023-04-03T05:30:38.347Z,77.4044
2023-04-03T05:31:40.211Z,77.6110
2023-04-03T05:32:42.028Z,78.0815
2023-04-03T05:33:43.810Z,78.7387
2023-04-03T05:34:45.621Z,77.3397
2023-04-03T05:35:47.480Z,77.6038
2023-04-03T05:36:49.414Z,77.1613
2023-04-03T05:37:51.413Z,76.8770
2023-04-03T05:38:53.249Z,78.0492
2023-04-03T05:39:55.277Z,78.6986
2023-04-03T05:40:57.054Z,77.9012
2023-04-03T05:41:58.845Z,78.4062
2023-04-03T05:43:00.694Z,77.7310
2023-04-03T05:44:02.436Z,77.4115
2023-04-03T05:45:04.256Z,77.0437
2023-04-03T05:46:06.163Z,77.4608
2023-04-03T05:47:07.945Z,77.4767
2023-04-03T05:48:09.751Z,77.2979
2023-04-03T05:49:11.514Z,77.1932
2023-04-03T05:50:13.310Z,76.7883
2023-04-03T05:51:15.142Z,76.4018
2023-04-03T05:52:16.908Z,76.2715
2023-04-03T05:53:18.735Z,76.3557
2023-04-03T05:54:20.473Z,76.6921
2023-04-03T05:55:22.294Z,76.1970
2023-04-03T05:56:24.117Z,75.7222
2023-04-03T05:57:25.903Z,75.4370
2023-04-03T05:58:27.714Z,74.6828
2023-04-03T05:59:29.572Z,74.9850
2023-04-03T06:00:31.353Z,75.5855
2023-04-03T06:01:33.145Z,75.2300
2023-04-03T06:02:34.943Z,75.2588
2023-04-03T06:03:38.798Z,75.1908
2023-04-03T06:04:37.208Z,75.3941
2023-04-03T06:05:39.377Z,74.8927
2023-04-03T06:06:41.377Z,74.6675
2023-04-03T06:07:43.218Z,74.7331
2023-04-03T06:08:44.977Z,73.6274
2023-04-03T06:09:46.808Z,73.0410
2023-04-03T06:10:48.498Z,72.4963
2023-04-03T06:11:50.419Z,72.7733
2023-04-03T06:12:52.221Z,72.6170
2023-04-03T06:13:54.020Z,72.5822
2023-04-03T06:14:55.783Z,72.1568
2023-04-03T06:15:57.584Z,72.5116
2023-04-03T06:16:59.393Z,72.5546
2023-04-03T06:18:01.194Z,72.4711
2023-04-03T06:19:02.983Z,72.2998
2023-04-03T06:20:04.742Z,72.0971
2023-04-03T06:21:06.570Z,72.0645
2023-04-03T06:22:08.393Z,71.9861
2023-04-03T06:23:10.148Z,71.7952
2023-04-03T06:24:11.912Z,71.9359
2023-04-03T06:25:13.687Z,71.9734
2023-04-03T06:26:15.473Z,72.1020
2023-04-03T06:27:17.271Z,71.9451
2023-04-03T06:28:19.082Z,71.8741
2023-04-03T06:29:20.946Z,71.8974
2023-04-03T06:30:22.799Z,71.8434
2023-04-03T06:31:24.728Z,71.8023
2023-04-03T06:32:26.600Z,71.6750
2023-04-03T06:33:28.458Z,71.6606
2023-04-03T06:34:30.330Z,70.7649
2023-04-03T06:35:32.204Z,71.0155
2023-04-03T06:36:33.984Z,70.5155
2023-04-03T06:37:35.838Z,70.5392
2023-04-03T06:38:37.652Z,70.8307
2023-04-03T06:39:39.472Z,71.2949
2023-04-03T06:40:41.337Z,71.0088
2023-04-03T06:41:43.191Z,71.0875
2023-04-03T06:42:45.013Z,70.7829
2023-04-03T06:43:46.860Z,70.5987
2023-04-03T06:44:48.704Z,70.9023
2023-04-03T06:45:50.508Z,71.2871
2023-04-03T06:46:52.407Z,70.9938
2023-04-03T06:47:54.249Z,70.7682
2023-04-03T06:48:56.067Z,70.6125
2023-04-03T06:49:57.881Z,70.3726
2023-04-03T06:50:59.740Z,70.3024
2023-04-03T06:52:02.665Z,71.0762
2023-04-03T06:53:02.341Z,70.8099
2023-04-03T06:54:04.191Z,70.1224
2023-04-03T06:55:06.188Z,69.9403
2023-04-03T06:56:07.990Z,69.2937
2023-04-03T06:57:09.796Z,69.0123
2023-04-03T06:58:11.632Z,69.5587
2023-04-03T06:59:13.460Z,69.3679
2023-04-03T07:00:15.321Z,69.3322
2023-04-03T07:01:17.216Z,69.2764
2023-04-03T07:02:19.036Z,69.2153
2023-04-03T07:03:21.032Z,69.1594
2023-04-03T07:04:22.872Z,69.1444
2023-04-03T07:05:24.685Z,68.8109
2023-04-03T07:06:26.494Z,69.4740
2023-04-03T07:07:28.347Z,69.5025
2023-04-03T07:08:30.146Z,69.3586
2023-04-03T07:09:31.986Z,69.0563
2023-04-03T07:10:33.820Z,69.5058
2023-04-03T07:11:35.621Z,69.2855
2023-04-03T07:12:37.449Z,70.1262
2023-04-03T07:13:39.251Z,68.9973
2023-04-03T07:14:41.056Z,68.4038
2023-04-03T07:15:42.888Z,69.3380
2023-04-03T07:16:44.709Z,69.5186
2023-04-03T07:17:46.554Z,69.3107
2023-04-03T07:18:48.387Z,68.8781
2023-04-03T07:19:50.210Z,68.3612
2023-04-03T07:20:52.044Z,68.1669
2023-04-03T07:21:53.883Z,68.4406
2023-04-03T07:22:55.710Z,68.8128
2023-04-03T07:23:57.532Z,68.9193
2023-04-03T07:24:59.373Z,68.7913
2023-04-03T07:26:01.214Z,68.9832
2023-04-03T07:27:03.030Z,68.7839
2023-04-03T07:28:04.903Z,68.8547
2023-04-03T07:29:06.763Z,68.7930
2023-04-03T07:30:08.581Z,68.5388
2023-04-03T07:31:10.461Z,68.7979
2023-04-03T07:32:12.290Z,68.4674
2023-04-03T07:33:14.126Z,68.5552
2023-04-03T07:34:15.934Z,67.6336
2023-04-03T07:35:17.748Z,67.6679
2023-04-03T07:36:19.578Z,66.9662
2023-04-03T07:37:21.409Z,66.6997
2023-04-03T07:38:23.233Z,67.0795
2023-04-03T07:39:25.116Z,66.6757
2023-04-03T07:40:26.963Z,66.2832
2023-04-03T07:41:28.800Z,66.4112
2023-04-03T07:42:30.645Z,66.5193
2023-04-03T07:43:32.436Z,67.0330
2023-04-03T07:44:34.256Z,66.9147
2023-04-03T07:45:36.235Z,67.0049
2023-04-03T07:46:38.263Z,66.9372
2023-04-03T07:47:40.184Z,66.6430
2023-04-03T07:48:42.000Z,66.5813
2023-04-03T07:49:43.785Z,66.1413
2023-04-03T07:50:45.594Z,65.5239
2023-04-03T07:51:47.380Z,66.0724
2023-04-03T07:52:49.226Z,65.5752
2023-04-03T07:53:51.055Z,65.8733
2023-04-03T07:54:52.859Z,65.4898
2023-04-03T07:55:54.675Z,65.2432
2023-04-03T07:56:56.570Z,65.2871
2023-04-03T07:57:58.458Z,65.2058
2023-04-03T07:59:00.344Z,65.4952
2023-04-03T08:00:02.173Z,65.2145
2023-04-03T08:01:03.985Z,64.9851
2023-04-03T08:02:05.808Z,65.5216
2023-04-03T08:03:09.597Z,65.0715
2023-04-03T08:04:09.929Z,64.8721
2023-04-03T08:05:11.728Z,64.6343
2023-04-03T08:06:16.516Z,64.7405
2023-04-03T08:07:14.604Z,64.5542
2023-04-03T08:08:16.727Z,64.3746
2023-04-03T08:09:18.851Z,64.2510
2023-04-03T08:10:20.802Z,64.8070
2023-04-03T08:11:22.594Z,64.8071
2023-04-03T08:12:24.441Z,64.7501
2023-04-03T08:13:26.264Z,64.1207
2023-04-03T08:14:28.103Z,64.2653
2023-04-03T08:15:29.886Z,64.9855
2023-04-03T08:16:31.800Z,64.6727
2023-04-03T08:17:33.727Z,64.2037
2023-04-03T08:18:35.567Z,64.6954
2023-04-03T08:19:37.304Z,64.7020
2023-04-03T08:20:39.161Z,64.9163
2023-04-03T08:21:41.062Z,65.0734
2023-04-03T08:22:42.864Z,64.6693
2023-04-03T08:23:44.701Z,64.0800
2023-04-03T08:24:58.279Z,63.9614
2023-04-03T08:25:46.875Z,63.6784
2023-04-03T08:26:48.671Z,63.6597
2023-04-03T08:27:50.496Z,63.8141
2023-04-03T08:28:52.340Z,63.2670
2023-04-03T08:29:54.145Z,63.9489
2023-04-03T08:30:56.033Z,64.3374
2023-04-03T08:31:57.866Z,63.9413
2023-04-03T08:32:59.667Z,63.6831
2023-04-03T08:34:01.487Z,63.3201
2023-04-03T08:35:03.366Z,63.6959
2023-04-03T08:36:05.178Z,63.2575
2023-04-03T08:37:06.958Z,63.2386
2023-04-03T08:38:08.735Z,63.6388
2023-04-03T08:39:10.619Z,63.5505
2023-04-03T08:40:12.423Z,62.9300
2023-04-03T08:41:14.229Z,63.1358
2023-04-03T08:42:15.981Z,63.2682
2023-04-03T08:43:17.824Z,63.8717
2023-04-03T08:44:19.600Z,63.6122
2023-04-03T08:45:21.348Z,63.4899
2023-04-03T08:46:23.243Z,63.8112
2023-04-03T08:47:25.085Z,63.2184
2023-04-03T08:48:26.904Z,63.6385
2023-04-03T08:49:28.770Z,63.4676
2023-04-03T08:50:30.561Z,63.3729
2023-04-03T08:51:32.378Z,63.5265
2023-04-03T08:52:34.128Z,63.0246
2023-04-03T08:53:35.938Z,63.3581
2023-04-03T08:54:37.771Z,63.7488
2023-04-03T08:55:39.887Z,64.3514
2023-04-03T08:56:39.623Z,64.5714
2023-04-03T08:57:41.427Z,63.4332
2023-04-03T08:58:43.245Z,63.4103
2023-04-03T08:59:45.074Z,63.5564
2023-04-03T09:00:46.896Z,63.7861
2023-04-03T09:01:48.702Z,63.8984
2023-04-03T09:02:50.485Z,63.7900
2023-04-03T09:03:52.308Z,63.6974
2023-04-03T09:04:54.085Z,63.4984
2023-04-03T09:05:55.849Z,62.6970
2023-04-03T09:06:57.660Z,63.0480
2023-04-03T09:07:59.437Z,63.2079
2023-04-03T09:09:01.283Z,63.0470
2023-04-03T09:10:03.110Z,62.9688
2023-04-03T09:11:04.927Z,62.9177
2023-04-03T09:12:06.722Z,62.9823
2023-04-03T09:13:08.524Z,63.0452
2023-04-03T09:14:10.386Z,63.2071
2023-04-03T09:15:12.226Z,63.5340
2023-04-03T09:16:14.022Z,63.2784
2023-04-03T09:17:15.803Z,63.1842
2023-04-03T09:18:17.579Z,62.8050
2023-04-03T09:19:19.393Z,62.8639
2023-04-03T09:20:21.369Z,62.8603
2023-04-03T09:21:23.192Z,63.1534
2023-04-03T09:22:25.017Z,62.7289
2023-04-03T09:23:26.784Z,62.3766
2023-04-03T09:24:28.630Z,62.6967
2023-04-03T09:25:32.081Z,63.4307
2023-04-03T09:26:31.639Z,63.2272
2023-04-03T09:27:33.476Z,62.7956
2023-04-03T09:28:39.258Z,62.4451
2023-04-03T09:29:35.639Z,62.1921
2023-04-03T09:30:37.625Z,62.2810
2023-04-03T09:31:40.116Z,61.9969
2023-04-03T09:32:40.625Z,62.1205
2023-04-03T09:33:42.341Z,62.6631
2023-04-03T09:34:44.190Z,62.5635
2023-04-03T09:35:48.615Z,62.0641
2023-04-03T09:36:46.143Z,61.7874
2023-04-03T09:37:47.891Z,62.0489
2023-04-03T09:38:49.720Z,62.0709
2023-04-03T09:39:51.517Z,62.1628
2023-04-03T09:40:53.329Z,62.5951
2023-04-03T09:41:55.111Z,62.9063
2023-04-03T09:43:01.490Z,62.9817
2023-04-03T09:43:57.250Z,62.3905
2023-04-03T09:44:59.068Z,62.3054
2023-04-03T09:46:00.856Z,62.1434
2023-04-03T09:47:02.734Z,61.8993
2023-04-03T09:48:05.563Z,61.9286
2023-04-03T09:49:09.508Z,62.4535
2023-04-03T09:50:07.073Z,62.2067
2023-04-03T09:51:08.848Z,61.6208
2023-04-03T09:52:10.655Z,61.7828
2023-04-03T09:53:12.453Z,61.6459
2023-04-03T09:54:14.300Z,61.3010
2023-04-03T09:55:16.105Z,61.6317
2023-04-03T09:56:17.883Z,61.7458
2023-04-03T09:57:19.678Z,61.4426
2023-04-03T09:58:21.425Z,61.0977
2023-04-03T09:59:23.294Z,60.7893
2023-04-03T10:00:25.050Z,61.6383
2023-04-03T10:01:26.836Z,61.9088
2023-04-03T10:02:28.623Z,61.5678
2023-04-03T10:03:31.349Z,61.7918
2023-04-03T10:04:32.270Z,62.0617
2023-04-03T10:05:34.048Z,61.9417
2023-04-03T10:06:35.838Z,61.9401
2023-04-03T10:07:37.629Z,62.8392
2023-04-03T10:08:39.424Z,63.3019
2023-04-03T10:09:41.199Z,62.8180
2023-04-03T10:10:42.983Z,62.9753
2023-04-03T10:11:44.761Z,62.6200
2023-04-03T10:12:46.550Z,62.9555
2023-04-03T10:13:51.220Z,62.8277
2023-04-03T10:14:48.404Z,63.4302
2023-04-03T10:15:50.236Z,63.0048
2023-04-03T10:16:52.080Z,62.9205
2023-04-03T10:17:53.888Z,63.1796
2023-04-03T10:18:55.661Z,63.8857
2023-04-03T10:19:57.484Z,63.5801
2023-04-03T10:20:59.253Z,63.3406
2023-04-03T10:22:01.193Z,63.0535
2023-04-03T10:23:02.996Z,63.0160
2023-04-03T10:24:04.759Z,62.8935
2023-04-03T10:25:06.632Z,62.4650
2023-04-03T10:26:08.360Z,63.4720
2023-04-03T10:27:10.165Z,62.6137
2023-04-03T10:28:11.965Z,62.3589
2023-04-03T10:29:13.749Z,63.1066
2023-04-03T10:30:15.595Z,62.9779
2023-04-03T10:31:17.476Z,62.4068
2023-04-03T10:32:19.294Z,62.4720
2023-04-03T10:33:21.083Z,62.6146
2023-04-03T10:34:22.901Z,62.5890
2023-04-03T10:35:24.664Z,62.5328
2023-04-03T10:36:26.507Z,62.4975
2023-04-03T10:37:28.268Z,61.8171
2023-04-03T10:38:30.061Z,61.5852
2023-04-03T10:39:31.839Z,61.2887
2023-04-03T10:40:33.665Z,61.1976
2023-04-03T10:41:35.441Z,60.9638
2023-04-03T10:42:37.203Z,60.5092
2023-04-03T10:43:38.980Z,60.3632
2023-04-03T10:44:40.773Z,60.9992
2023-04-03T10:45:42.612Z,60.4608
2023-04-03T10:46:44.387Z,60.7079
2023-04-03T10:47:46.179Z,61.2548
2023-04-03T10:48:47.966Z,60.5218
2023-04-03T10:49:57.017Z,60.8285
2023-04-03T10:50:50.073Z,60.5545
2023-04-03T10:51:51.881Z,60.6823
2023-04-03T10:52:53.678Z,60.8167
2023-04-03T10:53:55.470Z,61.3506
2023-04-03T10:54:57.264Z,62.3368
2023-04-03T10:55:59.097Z,63.1656
2023-04-03T10:57:11.023Z,65.1780
2023-04-03T10:58:01.218Z,67.2485
2023-04-03T10:59:02.995Z,70.3518
2023-04-03T11:00:04.784Z,70.0345
2023-04-03T11:01:06.656Z,68.3034
2023-04-03T11:02:08.536Z,68.7572
2023-04-03T11:03:10.448Z,67.6824
2023-04-03T11:04:12.341Z,65.3169
2023-04-03T11:05:14.137Z,64.5355
2023-04-03T11:06:15.983Z,63.9440
2023-04-03T11:07:17.806Z,63.3392
2023-04-03T11:08:19.730Z,63.3537
2023-04-03T11:09:21.570Z,63.0014
2023-04-03T11:10:23.446Z,63.2051
2023-04-03T11:11:25.294Z,63.0981
2023-04-03T11:12:27.125Z,62.6413
2023-04-03T11:13:28.947Z,62.2613
2023-04-03T11:14:30.796Z,62.2429
2023-04-03T11:15:32.686Z,62.7759
2023-04-03T11:16:43.370Z,62.8019
2023-04-03T11:17:34.890Z,63.1930
2023-04-03T11:18:36.654Z,63.2471
2023-04-03T11:19:38.503Z,63.3196
2023-04-03T11:20:40.375Z,63.3186
2023-04-03T11:21:42.149Z,63.7629
2023-04-03T11:22:43.989Z,64.0529
2023-04-03T11:23:49.964Z,64.3348
2023-04-03T11:24:47.089Z,64.6874
2023-04-03T11:25:48.909Z,65.0103
2023-04-03T11:26:50.736Z,64.8858
2023-04-03T11:27:52.574Z,65.3447
2023-04-03T11:28:54.408Z,65.0590
2023-04-03T11:29:56.220Z,64.9958
2023-04-03T11:30:58.293Z,64.6898
2023-04-03T11:31:58.793Z,64.2625
2023-04-03T11:33:00.745Z,64.0364
2023-04-03T11:34:02.648Z,64.2146
2023-04-03T11:35:04.461Z,64.6122
2023-04-03T11:36:15.505Z,65.0723
2023-04-03T11:37:06.796Z,64.3100
2023-04-03T11:38:08.633Z,63.4427
2023-04-03T11:39:10.438Z,63.3224
2023-04-03T11:40:12.260Z,63.6797
2023-04-03T11:41:14.068Z,63.8810
2023-04-03T11:42:15.918Z,63.9499
2023-04-03T11:43:17.705Z,63.6732
2023-04-03T11:44:19.572Z,63.7657
2023-04-03T11:45:21.383Z,63.9055
2023-04-03T11:46:23.225Z,64.0985
2023-04-03T11:47:25.115Z,64.8225
2023-04-03T11:48:26.982Z,64.6806
2023-04-03T11:49:28.767Z,64.4788
2023-04-03T11:50:30.561Z,64.7059
2023-04-03T11:51:32.446Z,64.6073
2023-04-03T11:52:34.248Z,64.7349
2023-04-03T11:53:36.073Z,64.6900
2023-04-03T11:54:44.290Z,64.6276
2023-04-03T11:55:38.403Z,64.8685
2023-04-03T11:56:40.544Z,64.8861
2023-04-03T11:57:42.386Z,65.1662
2023-04-03T11:58:44.238Z,65.3327
2023-04-03T11:59:46.065Z,65.8085
2023-04-03T12:00:47.930Z,65.4843
2023-04-03T12:01:49.826Z,65.6474
2023-04-03T12:02:54.676Z,65.7664
2023-04-03T12:03:52.215Z,65.5538
2023-04-03T12:04:54.052Z,65.9131
2023-04-03T12:05:55.938Z,65.8963
2023-04-03T12:06:57.802Z,65.2990
2023-04-03T12:07:59.634Z,65.2055
2023-04-03T12:09:01.448Z,65.2531
2023-04-03T12:10:03.266Z,65.0805
2023-04-03T12:11:05.116Z,64.7918
2023-04-03T12:12:06.972Z,65.0394
2023-04-03T12:13:08.880Z,64.6661
2023-04-03T12:14:10.681Z,64.1297
2023-04-03T12:15:12.511Z,63.9476
2023-04-03T12:16:14.376Z,64.3336
2023-04-03T12:17:16.241Z,63.8798
2023-04-03T12:18:18.064Z,64.2443
2023-04-03T12:19:22.252Z,64.7258
2023-04-03T12:20:21.200Z,64.7694
2023-04-03T12:21:23.100Z,64.9635
2023-04-03T12:22:24.969Z,64.9949
2023-04-03T12:23:26.799Z,65.0136
2023-04-03T12:24:28.641Z,64.7125
2023-04-03T12:25:30.479Z,64.4121
2023-04-03T12:26:38.397Z,64.5711